sensor_id;sensor_type;location;lat;lon;timestamp;pressure;altitude;pressure_sealevel;temperature;humidity
71306;BME280;59097;46.858;18.632;2023-04-27T00:01:05;100619.06;;;4.30;75.38
71306;BME280;59097;46.858;18.632;2023-04-27T00:03:31;100607.81;;;4.37;74.05
71306;BME280;59097;46.858;18.632;2023-04-27T00:05:58;100595.12;;;4.33;74.04
71306;BME280;59097;46.858;18.632;2023-04-27T00:08:30;100606.31;;;5.03;72.00
71306;BME280;59097;46.858;18.632;2023-04-27T00:10:59;100611.06;;;5.03;72.00
71306;BME280;59097;46.858;18.632;2023-04-27T00:13:27;100582.91;;;4.14;74.13
71306;BME280;59097;46.858;18.632;2023-04-27T00:15:55;100617.81;;;4.24;74.54
71306;BME280;59097;46.858;18.632;2023-04-27T00:18:23;100598.94;;;4.21;75.38
71306;BME280;59097;46.858;18.632;2023-04-27T00:20:51;100585.56;;;4.05;74.76
71306;BME280;59097;46.858;18.632;2023-04-27T00:23:19;100617.81;;;4.24;75.04
71306;BME280;59097;46.858;18.632;2023-04-27T00:25:48;100621.88;;;4.19;75.94
71306;BME280;59097;46.858;18.632;2023-04-27T00:28:15;100616.31;;;4.22;75.91
71306;BME280;59097;46.858;18.632;2023-04-27T00:30:44;100622.28;;;4.24;76.24
71306;BME280;59097;46.858;18.632;2023-04-27T00:33:42;100620.75;;;4.12;76.20
71306;BME280;59097;46.858;18.632;2023-04-27T00:36:08;100616.75;;;4.17;76.03
71306;BME280;59097;46.858;18.632;2023-04-27T00:38:34;100620.88;;;4.20;75.84
71306;BME280;59097;46.858;18.632;2023-04-27T00:41:02;100614.94;;;4.18;75.92
71306;BME280;59097;46.858;18.632;2023-04-27T00:43:28;100606.69;;;4.13;76.62
71306;BME280;59097;46.858;18.632;2023-04-27T00:45:54;100600.09;;;3.99;76.46
71306;BME280;59097;46.858;18.632;2023-04-27T00:48:27;100612.00;;;4.67;74.42
71306;BME280;59097;46.858;18.632;2023-04-27T00:50:56;100612.00;;;4.67;74.42
71306;BME280;59097;46.858;18.632;2023-04-27T00:53:24;100625.50;;;3.99;76.68
71306;BME280;59097;46.858;18.632;2023-04-27T00:55:52;100620.00;;;3.92;77.12
71306;BME280;59097;46.858;18.632;2023-04-27T00:58:21;100622.47;;;3.94;77.45
71306;BME280;59097;46.858;18.632;2023-04-27T01:00:49;100616.41;;;3.83;78.16
71306;BME280;59097;46.858;18.632;2023-04-27T01:03:17;100616.00;;;3.88;77.58
71306;BME280;59097;46.858;18.632;2023-04-27T01:05:46;100611.72;;;3.87;77.50
71306;BME280;59097;46.858;18.632;2023-04-27T01:08:17;100616.13;;;3.87;77.63
71306;BME280;59097;46.858;18.632;2023-04-27T01:11:16;100605.81;;;3.75;77.76
71306;BME280;59097;46.858;18.632;2023-04-27T01:14:13;100617.81;;;3.88;77.81
71306;BME280;59097;46.858;18.632;2023-04-27T01:16:54;100630.63;;;3.81;78.19
71306;BME280;59097;46.858;18.632;2023-04-27T01:19:21;100625.78;;;3.86;78.09
71306;BME280;59097;46.858;18.632;2023-04-27T01:21:47;100635.88;;;3.91;78.31
71306;BME280;59097;46.858;18.632;2023-04-27T01:24:13;100612.28;;;3.81;78.07
71306;BME280;59097;46.858;18.632;2023-04-27T01:26:40;100624.00;;;3.87;78.15
71306;BME280;59097;46.858;18.632;2023-04-27T01:29:12;100622.41;;;4.59;75.72
71306;BME280;59097;46.858;18.632;2023-04-27T01:31:41;100622.41;;;4.59;75.72
71306;BME280;59097;46.858;18.632;2023-04-27T01:34:09;100610.06;;;3.86;77.85
71306;BME280;59097;46.858;18.632;2023-04-27T01:36:38;100626.19;;;3.91;77.95
71306;BME280;59097;46.858;18.632;2023-04-27T01:39:06;100632.16;;;3.83;78.87
71306;BME280;59097;46.858;18.632;2023-04-27T01:41:36;100635.59;;;3.94;78.21
71306;BME280;59097;46.858;18.632;2023-04-27T01:44:04;100626.75;;;3.95;78.24
71306;BME280;59097;46.858;18.632;2023-04-27T01:46:33;100607.56;;;3.94;78.21
71306;BME280;59097;46.858;18.632;2023-04-27T01:49:01;100612.38;;;3.99;77.96
71306;BME280;59097;46.858;18.632;2023-04-27T01:51:30;100579.59;;;3.75;77.86
71306;BME280;59097;46.858;18.632;2023-04-27T01:54:13;100623.41;;;4.02;77.60
71306;BME280;59097;46.858;18.632;2023-04-27T01:56:55;100597.78;;;3.87;77.46
71306;BME280;59097;46.858;18.632;2023-04-27T01:59:23;100616.81;;;3.98;77.68
71306;BME280;59097;46.858;18.632;2023-04-27T02:01:49;100614.31;;;3.97;77.78
71306;BME280;59097;46.858;18.632;2023-04-27T02:04:16;100601.66;;;3.83;77.53
71306;BME280;59097;46.858;18.632;2023-04-27T02:06:42;100600.56;;;3.75;77.79
71306;BME280;59097;46.858;18.632;2023-04-27T02:09:14;100611.13;;;4.39;76.15
71306;BME280;59097;46.858;18.632;2023-04-27T02:11:43;100611.13;;;4.39;76.15
71306;BME280;59097;46.858;18.632;2023-04-27T02:14:12;100627.34;;;3.69;78.59
71306;BME280;59097;46.858;18.632;2023-04-27T02:16:41;100624.88;;;3.58;80.30
71306;BME280;59097;46.858;18.632;2023-04-27T02:19:09;100637.03;;;3.50;79.74
71306;BME280;59097;46.858;18.632;2023-04-27T02:21:39;100637.00;;;3.40;80.22
71306;BME280;59097;46.858;18.632;2023-04-27T02:24:08;100615.47;;;3.27;81.22
71306;BME280;59097;46.858;18.632;2023-04-27T02:26:36;100596.59;;;3.14;80.39
71306;BME280;59097;46.858;18.632;2023-04-27T02:29:04;100641.16;;;3.43;81.53
71306;BME280;59097;46.858;18.632;2023-04-27T02:31:34;100649.59;;;3.37;81.88
71306;BME280;59097;46.858;18.632;2023-04-27T02:34:15;100617.69;;;3.12;81.39
71306;BME280;59097;46.858;18.632;2023-04-27T02:36:41;100641.00;;;3.25;82.34
71306;BME280;59097;46.858;18.632;2023-04-27T02:39:07;100643.34;;;3.28;82.27
71306;BME280;59097;46.858;18.632;2023-04-27T02:41:34;100645.16;;;3.28;82.39
71306;BME280;59097;46.858;18.632;2023-04-27T02:44:00;100633.97;;;3.16;82.25
71306;BME280;59097;46.858;18.632;2023-04-27T02:46:32;100644.03;;;3.30;83.17
71306;BME280;59097;46.858;18.632;2023-04-27T02:49:01;100653.84;;;3.18;82.88
71306;BME280;59097;46.858;18.632;2023-04-27T02:51:29;100653.00;;;3.18;83.30
71306;BME280;59097;46.858;18.632;2023-04-27T02:53:57;100657.13;;;3.11;82.87
71306;BME280;59097;46.858;18.632;2023-04-27T02:56:25;100611.28;;;2.77;83.12
71306;BME280;59097;46.858;18.632;2023-04-27T02:58:54;100632.12;;;2.88;83.42
71306;BME280;59097;46.858;18.632;2023-04-27T03:01:23;100660.28;;;3.05;83.76
71306;BME280;59097;46.858;18.632;2023-04-27T03:03:52;100656.81;;;2.95;83.70
71306;BME280;59097;46.858;18.632;2023-04-27T03:06:20;100652.69;;;2.92;83.96
71306;BME280;59097;46.858;18.632;2023-04-27T03:09:02;100664.66;;;2.95;84.40
71306;BME280;59097;46.858;18.632;2023-04-27T03:11:59;100668.25;;;2.94;84.26
71306;BME280;59097;46.858;18.632;2023-04-27T03:14:57;100660.53;;;2.92;84.38
71306;BME280;59097;46.858;18.632;2023-04-27T03:17:24;100668.66;;;2.89;84.73
71306;BME280;59097;46.858;18.632;2023-04-27T03:19:50;100677.75;;;2.85;85.20
71306;BME280;59097;46.858;18.632;2023-04-27T03:22:17;100664.75;;;2.74;85.16
71306;BME280;59097;46.858;18.632;2023-04-27T03:24:43;100670.25;;;2.71;85.23
71306;BME280;59097;46.858;18.632;2023-04-27T03:27:10;100676.75;;;2.77;85.78
71306;BME280;59097;46.858;18.632;2023-04-27T03:29:36;100684.34;;;2.80;85.70
71306;BME280;59097;46.858;18.632;2023-04-27T03:32:09;100669.88;;;3.44;84.07
71306;BME280;59097;46.858;18.632;2023-04-27T03:34:37;100669.88;;;3.44;84.07
71306;BME280;59097;46.858;18.632;2023-04-27T03:37:05;100692.53;;;2.96;85.93
71306;BME280;59097;46.858;18.632;2023-04-27T03:39:36;100675.56;;;2.90;85.71
71306;BME280;59097;46.858;18.632;2023-04-27T03:42:04;100692.69;;;3.04;85.06
71306;BME280;59097;46.858;18.632;2023-04-27T03:44:32;100653.87;;;2.79;84.32
71306;BME280;59097;46.858;18.632;2023-04-27T03:47:02;100694.34;;;3.05;84.39
71306;BME280;59097;46.858;18.632;2023-04-27T03:49:37;100699.06;;;3.11;83.81
71306;BME280;59097;46.858;18.632;2023-04-27T03:52:18;100687.03;;;2.99;83.35
71306;BME280;59097;46.858;18.632;2023-04-27T03:55:30;100694.06;;;3.08;83.30
71306;BME280;59097;46.858;18.632;2023-04-27T03:57:56;100707.87;;;3.19;83.12
71306;BME280;59097;46.858;18.632;2023-04-27T04:00:22;100708.44;;;3.23;83.80
71306;BME280;59097;46.858;18.632;2023-04-27T04:02:49;100700.84;;;3.20;83.57
71306;BME280;59097;46.858;18.632;2023-04-27T04:05:17;100702.13;;;3.26;83.00
71306;BME280;59097;46.858;18.632;2023-04-27T04:07:43;100717.84;;;3.35;82.81
71306;BME280;59097;46.858;18.632;2023-04-27T04:10:15;100716.88;;;4.22;80.16
71306;BME280;59097;46.858;18.632;2023-04-27T04:12:46;100716.88;;;4.22;80.16
71306;BME280;59097;46.858;18.632;2023-04-27T04:15:14;100701.06;;;3.47;82.31
71306;BME280;59097;46.858;18.632;2023-04-27T04:17:42;100715.13;;;3.65;82.09
71306;BME280;59097;46.858;18.632;2023-04-27T04:20:11;100702.88;;;3.75;81.67
71306;BME280;59097;46.858;18.632;2023-04-27T04:22:39;100713.06;;;3.88;81.01
71306;BME280;59097;46.858;18.632;2023-04-27T04:25:07;100717.22;;;4.00;80.71
71306;BME280;59097;46.858;18.632;2023-04-27T04:27:35;100718.44;;;4.15;80.28
71306;BME280;59097;46.858;18.632;2023-04-27T04:30:05;100723.38;;;4.28;80.05
71306;BME280;59097;46.858;18.632;2023-04-27T04:32:48;100709.88;;;4.13;79.19
71306;BME280;59097;46.858;18.632;2023-04-27T04:35:30;100718.94;;;4.38;79.20
71306;BME280;59097;46.858;18.632;2023-04-27T04:37:58;100717.50;;;4.53;78.64
71306;BME280;59097;46.858;18.632;2023-04-27T04:40:25;100712.25;;;4.53;77.97
71306;BME280;59097;46.858;18.632;2023-04-27T04:42:51;100735.37;;;4.86;77.35
71306;BME280;59097;46.858;18.632;2023-04-27T04:45:17;100739.66;;;5.15;75.99
71306;BME280;59097;46.858;18.632;2023-04-27T04:47:50;100745.28;;;6.09;73.34
71306;BME280;59097;46.858;18.632;2023-04-27T04:50:21;100745.28;;;6.09;73.34
71306;BME280;59097;46.858;18.632;2023-04-27T04:52:50;100742.72;;;7.44;68.48
71306;BME280;59097;46.858;18.632;2023-04-27T04:55:18;100753.47;;;12.22;54.34
71306;BME280;59097;46.858;18.632;2023-04-27T04:57:46;100749.78;;;14.47;46.74
71306;BME280;59097;46.858;18.632;2023-04-27T05:00:15;100766.53;;;18.03;37.53
71306;BME280;59097;46.858;18.632;2023-04-27T05:02:42;100759.94;;;20.01;34.38
71306;BME280;59097;46.858;18.632;2023-04-27T05:05:11;100756.38;;;16.66;39.03
71306;BME280;59097;46.858;18.632;2023-04-27T05:07:40;100766.50;;;12.38;45.14
71306;BME280;59097;46.858;18.632;2023-04-27T05:10:11;100769.75;;;12.34;47.54
71306;BME280;59097;46.858;18.632;2023-04-27T05:12:37;100771.97;;;9.43;54.90
71306;BME280;59097;46.858;18.632;2023-04-27T05:15:04;100769.59;;;8.22;59.11
71306;BME280;59097;46.858;18.632;2023-04-27T05:17:47;100747.78;;;8.20;61.28
71306;BME280;59097;46.858;18.632;2023-04-27T05:20:28;100752.03;;;8.69;59.13
71306;BME280;59097;46.858;18.632;2023-04-27T05:22:56;100778.00;;;8.66;59.99
71306;BME280;59097;46.858;18.632;2023-04-27T05:25:23;100782.81;;;8.54;60.86
71306;BME280;59097;46.858;18.632;2023-04-27T05:27:51;100756.06;;;8.33;61.59
71306;BME280;59097;46.858;18.632;2023-04-27T05:30:19;100783.44;;;8.64;60.91
71306;BME280;59097;46.858;18.632;2023-04-27T05:32:48;100783.97;;;8.60;62.04
71306;BME280;59097;46.858;18.632;2023-04-27T05:35:39;100771.03;;;8.81;60.04
71306;BME280;59097;46.858;18.632;2023-04-27T05:38:20;100779.31;;;8.62;61.63
71306;BME280;59097;46.858;18.632;2023-04-27T05:41:02;100776.41;;;9.12;61.23
71306;BME280;59097;46.858;18.632;2023-04-27T05:43:28;100764.97;;;9.19;59.50
71306;BME280;59097;46.858;18.632;2023-04-27T05:46:26;100774.41;;;9.14;59.71
71306;BME280;59097;46.858;18.632;2023-04-27T05:48:52;100769.41;;;9.27;59.39
71306;BME280;59097;46.858;18.632;2023-04-27T05:51:18;100785.31;;;9.19;59.57
71306;BME280;59097;46.858;18.632;2023-04-27T05:53:44;100782.47;;;9.20;59.00
71306;BME280;59097;46.858;18.632;2023-04-27T05:56:17;100788.53;;;9.98;57.48
71306;BME280;59097;46.858;18.632;2023-04-27T05:58:46;100788.53;;;9.98;57.48
71306;BME280;59097;46.858;18.632;2023-04-27T06:01:16;100790.16;;;9.46;58.22
71306;BME280;59097;46.858;18.632;2023-04-27T06:03:44;100790.28;;;9.61;56.62
71306;BME280;59097;46.858;18.632;2023-04-27T06:06:12;100789.28;;;10.07;56.34
71306;BME280;59097;46.858;18.632;2023-04-27T06:08:41;100791.78;;;9.55;56.70
71306;BME280;59097;46.858;18.632;2023-04-27T06:11:11;100785.59;;;9.93;56.61
71306;BME280;59097;46.858;18.632;2023-04-27T06:13:40;100793.41;;;10.09;57.54
71306;BME280;59097;46.858;18.632;2023-04-27T06:16:09;100787.34;;;10.32;56.86
71306;BME280;59097;46.858;18.632;2023-04-27T06:18:37;100803.16;;;10.17;56.22
71306;BME280;59097;46.858;18.632;2023-04-27T06:21:05;100804.00;;;10.18;55.84
71306;BME280;59097;46.858;18.632;2023-04-27T06:23:34;100803.31;;;10.24;56.12
71306;BME280;59097;46.858;18.632;2023-04-27T06:26:02;100804.69;;;10.57;55.23
71306;BME280;59097;46.858;18.632;2023-04-27T06:28:30;100786.37;;;10.25;55.36
71306;BME280;59097;46.858;18.632;2023-04-27T06:31:00;100804.00;;;10.78;55.45
71306;BME280;59097;46.858;18.632;2023-04-27T06:33:28;100807.94;;;10.96;53.56
71306;BME280;59097;46.858;18.632;2023-04-27T06:35:57;100811.78;;;10.94;53.33
71306;BME280;59097;46.858;18.632;2023-04-27T06:38:25;100803.22;;;10.54;53.96
71306;BME280;59097;46.858;18.632;2023-04-27T06:40:54;100819.38;;;10.82;52.78
71306;BME280;59097;46.858;18.632;2023-04-27T06:43:22;100812.41;;;10.81;53.25
71306;BME280;59097;46.858;18.632;2023-04-27T06:46:18;100817.22;;;10.63;52.60
71306;BME280;59097;46.858;18.632;2023-04-27T06:49:03;100805.47;;;10.95;52.57
71306;BME280;59097;46.858;18.632;2023-04-27T06:51:52;100823.84;;;10.96;54.08
71306;BME280;59097;46.858;18.632;2023-04-27T06:54:19;100816.91;;;10.81;53.41
71306;BME280;59097;46.858;18.632;2023-04-27T06:56:49;100811.72;;;11.16;54.84
71306;BME280;59097;46.858;18.632;2023-04-27T06:59:31;100814.38;;;11.31;53.14
71306;BME280;59097;46.858;18.632;2023-04-27T07:02:00;100812.81;;;11.07;53.39
71306;BME280;59097;46.858;18.632;2023-04-27T07:04:31;100810.63;;;11.11;52.27
71306;BME280;59097;46.858;18.632;2023-04-27T07:06:59;100822.50;;;11.59;54.55
71306;BME280;59097;46.858;18.632;2023-04-27T07:09:28;100823.78;;;11.48;53.15
71306;BME280;59097;46.858;18.632;2023-04-27T07:11:58;100825.25;;;11.80;51.32
71306;BME280;59097;46.858;18.632;2023-04-27T07:14:28;100823.22;;;11.82;51.90
71306;BME280;59097;46.858;18.632;2023-04-27T07:16:56;100825.31;;;11.86;51.08
71306;BME280;59097;46.858;18.632;2023-04-27T07:19:26;100788.97;;;11.72;50.22
71306;BME280;59097;46.858;18.632;2023-04-27T07:21:54;100804.81;;;11.51;48.50
71306;BME280;59097;46.858;18.632;2023-04-27T07:24:23;100822.59;;;12.01;49.89
71306;BME280;59097;46.858;18.632;2023-04-27T07:26:51;100824.25;;;12.44;49.48
71306;BME280;59097;46.858;18.632;2023-04-27T07:29:19;100826.63;;;12.33;47.87
71306;BME280;59097;46.858;18.632;2023-04-27T07:31:54;100800.84;;;12.33;48.39
71306;BME280;59097;46.858;18.632;2023-04-27T07:34:23;100820.78;;;12.44;46.93
71306;BME280;59097;46.858;18.632;2023-04-27T07:36:51;100819.38;;;12.48;47.08
71306;BME280;59097;46.858;18.632;2023-04-27T07:39:21;100833.06;;;12.66;46.49
71306;BME280;59097;46.858;18.632;2023-04-27T07:41:49;100822.12;;;12.54;45.80
71306;BME280;59097;46.858;18.632;2023-04-27T07:44:18;100827.50;;;12.40;43.69
71306;BME280;59097;46.858;18.632;2023-04-27T07:46:50;100833.87;;;12.45;42.22
71306;BME280;59097;46.858;18.632;2023-04-27T07:49:22;100825.66;;;12.61;43.17
71306;BME280;59097;46.858;18.632;2023-04-27T07:51:52;100832.47;;;12.98;43.83
71306;BME280;59097;46.858;18.632;2023-04-27T07:54:20;100814.72;;;13.33;43.44
71306;BME280;59097;46.858;18.632;2023-04-27T07:56:48;100822.56;;;15.46;37.42
71306;BME280;59097;46.858;18.632;2023-04-27T07:59:47;100828.47;;;21.60;29.99
71306;BME280;59097;46.858;18.632;2023-04-27T08:02:38;100833.16;;;24.17;25.10
71306;BME280;59097;46.858;18.632;2023-04-27T08:05:09;100836.97;;;25.22;22.56
71306;BME280;59097;46.858;18.632;2023-04-27T08:07:38;100829.69;;;25.81;22.76
71306;BME280;59097;46.858;18.632;2023-04-27T08:10:21;100830.06;;;26.57;21.64
71306;BME280;59097;46.858;18.632;2023-04-27T08:12:51;100829.59;;;26.45;20.71
71306;BME280;59097;46.858;18.632;2023-04-27T08:15:20;100827.72;;;25.23;21.48
71306;BME280;59097;46.858;18.632;2023-04-27T08:17:46;100810.97;;;28.10;20.32
71306;BME280;59097;46.858;18.632;2023-04-27T08:20:13;100820.22;;;27.19;19.87
71306;BME280;59097;46.858;18.632;2023-04-27T08:22:54;100806.31;;;25.11;21.67
71306;BME280;59097;46.858;18.632;2023-04-27T08:25:21;100823.97;;;24.48;21.44
71306;BME280;59097;46.858;18.632;2023-04-27T08:27:53;100826.97;;;26.69;20.59
71306;BME280;59097;46.858;18.632;2023-04-27T08:30:22;100826.97;;;26.69;20.59
71306;BME280;59097;46.858;18.632;2023-04-27T08:32:50;100824.25;;;24.31;21.67
71306;BME280;59097;46.858;18.632;2023-04-27T08:35:24;100827.41;;;25.49;21.20
71306;BME280;59097;46.858;18.632;2023-04-27T08:37:52;100816.66;;;24.44;19.91
71306;BME280;59097;46.858;18.632;2023-04-27T08:40:21;100813.06;;;25.24;20.89
71306;BME280;59097;46.858;18.632;2023-04-27T08:42:56;100810.47;;;20.55;26.54
71306;BME280;59097;46.858;18.632;2023-04-27T08:45:26;100822.59;;;23.01;23.28
71306;BME280;59097;46.858;18.632;2023-04-27T08:47:54;100820.97;;;23.42;23.23
71306;BME280;59097;46.858;18.632;2023-04-27T08:50:25;100816.72;;;23.66;23.04
71306;BME280;59097;46.858;18.632;2023-04-27T08:52:55;100810.53;;;21.49;23.62
71306;BME280;59097;46.858;18.632;2023-04-27T08:55:24;100823.78;;;21.50;23.40
71306;BME280;59097;46.858;18.632;2023-04-27T08:57:56;100805.81;;;22.99;22.74
71306;BME280;59097;46.858;18.632;2023-04-27T09:00:25;100822.12;;;23.66;22.57
71306;BME280;59097;46.858;18.632;2023-04-27T09:02:54;100798.09;;;22.49;23.06
71306;BME280;59097;46.858;18.632;2023-04-27T09:05:23;100811.03;;;23.16;21.81
71306;BME280;59097;46.858;18.632;2023-04-27T09:10:51;100800.03;;;22.22;22.90
71306;BME280;59097;46.858;18.632;2023-04-27T09:14:24;100787.62;;;22.58;23.33
71306;BME280;59097;46.858;18.632;2023-04-27T09:17:29;100816.53;;;20.79;24.48
71306;BME280;59097;46.858;18.632;2023-04-27T09:20:10;100801.06;;;21.89;23.60
71306;BME280;59097;46.858;18.632;2023-04-27T09:22:53;100797.66;;;22.94;21.73
71306;BME280;59097;46.858;18.632;2023-04-27T09:25:30;100804.44;;;22.33;22.95
71306;BME280;59097;46.858;18.632;2023-04-27T09:28:00;100791.12;;;22.90;21.77
71306;BME280;59097;46.858;18.632;2023-04-27T09:30:31;100784.84;;;20.36;23.76
71306;BME280;59097;46.858;18.632;2023-04-27T09:33:00;100796.44;;;19.80;26.08
71306;BME280;59097;46.858;18.632;2023-04-27T09:35:31;100790.50;;;19.04;26.40
71306;BME280;59097;46.858;18.632;2023-04-27T09:38:00;100771.78;;;17.98;29.04
71306;BME280;59097;46.858;18.632;2023-04-27T09:40:28;100788.53;;;16.66;28.10
71306;BME280;59097;46.858;18.632;2023-04-27T09:43:01;100783.69;;;16.57;32.08
71306;BME280;59097;46.858;18.632;2023-04-27T09:45:37;100734.66;;;15.69;30.60
71306;BME280;59097;46.858;18.632;2023-04-27T09:48:10;100776.28;;;15.52;31.13
71306;BME280;59097;46.858;18.632;2023-04-27T09:50:45;100792.91;;;15.54;32.90
71306;BME280;59097;46.858;18.632;2023-04-27T09:53:18;100785.19;;;15.26;33.08
71306;BME280;59097;46.858;18.632;2023-04-27T10:02:09;100715.53;;;15.21;33.58
71306;BME280;59097;46.858;18.632;2023-04-27T10:05:15;100790.63;;;15.64;31.97
71306;BME280;59097;46.858;18.632;2023-04-27T10:07:50;100783.66;;;15.56;32.22
71306;BME280;59097;46.858;18.632;2023-04-27T10:10:22;100773.13;;;15.04;31.76
71306;BME280;59097;46.858;18.632;2023-04-27T10:12:56;100770.88;;;15.65;31.68
71306;BME280;59097;46.858;18.632;2023-04-27T10:15:26;100765.72;;;15.13;32.47
71306;BME280;59097;46.858;18.632;2023-04-27T10:18:29;100767.59;;;15.63;32.71
71306;BME280;59097;46.858;18.632;2023-04-27T10:21:09;100766.50;;;15.13;33.17
71306;BME280;59097;46.858;18.632;2023-04-27T10:23:49;100759.09;;;15.22;32.55
71306;BME280;59097;46.858;18.632;2023-04-27T10:26:46;100759.22;;;15.46;34.67
71306;BME280;59097;46.858;18.632;2023-04-27T10:29:18;100680.59;;;15.23;32.82
71306;BME280;59097;46.858;18.632;2023-04-27T10:31:48;100756.72;;;15.58;32.99
71306;BME280;59097;46.858;18.632;2023-04-27T10:34:17;100760.31;;;15.26;33.62
71306;BME280;59097;46.858;18.632;2023-04-27T10:37:04;100751.59;;;15.94;33.60
71306;BME280;59097;46.858;18.632;2023-04-27T10:39:36;100759.47;;;16.70;33.39
71306;BME280;59097;46.858;18.632;2023-04-27T10:42:28;100754.25;;;16.75;35.94
71306;BME280;59097;46.858;18.632;2023-04-27T10:44:58;100737.38;;;16.25;32.48
71306;BME280;59097;46.858;18.632;2023-04-27T10:47:43;100761.12;;;15.33;34.51
71306;BME280;59097;46.858;18.632;2023-04-27T10:50:50;100768.44;;;15.57;34.00
71306;BME280;59097;46.858;18.632;2023-04-27T10:53:22;100745.59;;;15.99;34.00
71306;BME280;59097;46.858;18.632;2023-04-27T10:55:55;100763.50;;;15.98;32.80
71306;BME280;59097;46.858;18.632;2023-04-27T10:58:27;100745.00;;;16.21;32.57
71306;BME280;59097;46.858;18.632;2023-04-27T11:01:26;100752.13;;;16.83;32.19
71306;BME280;59097;46.858;18.632;2023-04-27T11:03:59;100752.78;;;17.33;31.73
71306;BME280;59097;46.858;18.632;2023-04-27T11:06:48;100745.34;;;17.17;32.26
71306;BME280;59097;46.858;18.632;2023-04-27T11:09:27;100756.53;;;17.14;31.97
71306;BME280;59097;46.858;18.632;2023-04-27T11:11:56;100750.31;;;16.77;30.88
71306;BME280;59097;46.858;18.632;2023-04-27T11:14:28;100749.97;;;17.28;30.93
71306;BME280;59097;46.858;18.632;2023-04-27T11:16:57;100752.34;;;16.32;30.55
71306;BME280;59097;46.858;18.632;2023-04-27T11:19:29;100753.28;;;15.38;32.69
71306;BME280;59097;46.858;18.632;2023-04-27T11:22:21;100748.72;;;15.58;31.66
71306;BME280;59097;46.858;18.632;2023-04-27T11:24:56;100739.97;;;15.25;33.69
71306;BME280;59097;46.858;18.632;2023-04-27T11:27:39;100749.66;;;15.70;31.42
71306;BME280;59097;46.858;18.632;2023-04-27T11:30:19;100742.53;;;16.20;31.81
71306;BME280;59097;46.858;18.632;2023-04-27T11:32:49;100749.19;;;16.11;32.61
71306;BME280;59097;46.858;18.632;2023-04-27T11:35:18;100747.19;;;16.31;30.35
71306;BME280;59097;46.858;18.632;2023-04-27T11:37:56;100732.13;;;16.36;31.80
71306;BME280;59097;46.858;18.632;2023-04-27T11:40:31;100740.94;;;16.68;30.90
71306;BME280;59097;46.858;18.632;2023-04-27T11:43:18;100705.28;;;16.18;31.39
71306;BME280;59097;46.858;18.632;2023-04-27T11:45:48;100693.31;;;16.27;31.14
71306;BME280;59097;46.858;18.632;2023-04-27T11:48:38;100731.63;;;16.46;32.68
71306;BME280;59097;46.858;18.632;2023-04-27T11:51:32;100739.00;;;16.01;32.87
71306;BME280;59097;46.858;18.632;2023-04-27T11:54:06;100744.34;;;16.01;32.35
71306;BME280;59097;46.858;18.632;2023-04-27T11:56:38;100746.31;;;15.81;31.94
71306;BME280;59097;46.858;18.632;2023-04-27T11:59:22;100744.56;;;14.98;34.14
71306;BME280;59097;46.858;18.632;2023-04-27T12:01:52;100745.66;;;14.71;34.59
71306;BME280;59097;46.858;18.632;2023-04-27T12:04:25;100714.28;;;14.40;33.49
71306;BME280;59097;46.858;18.632;2023-04-27T12:07:01;100747.50;;;14.83;32.68
71306;BME280;59097;46.858;18.632;2023-04-27T12:09:42;100693.94;;;14.59;33.13
71306;BME280;59097;46.858;18.632;2023-04-27T12:12:15;100726.28;;;15.01;32.27
71306;BME280;59097;46.858;18.632;2023-04-27T12:14:51;100742.69;;;15.11;33.38
71306;BME280;59097;46.858;18.632;2023-04-27T12:17:20;100741.97;;;15.42;33.29
71306;BME280;59097;46.858;18.632;2023-04-27T12:19:49;100712.16;;;15.39;31.97
71306;BME280;59097;46.858;18.632;2023-04-27T12:22:20;100731.19;;;15.62;31.96
71306;BME280;59097;46.858;18.632;2023-04-27T12:24:49;100731.69;;;15.46;31.87
71306;BME280;59097;46.858;18.632;2023-04-27T12:27:21;100731.87;;;14.80;33.09
71306;BME280;59097;46.858;18.632;2023-04-27T12:30:00;100730.44;;;14.84;32.43
71306;BME280;59097;46.858;18.632;2023-04-27T12:32:29;100705.19;;;14.80;32.34
71306;BME280;59097;46.858;18.632;2023-04-27T12:35:01;100621.28;;;14.24;33.60
71306;BME280;59097;46.858;18.632;2023-04-27T12:37:40;100734.69;;;15.11;33.79
71306;BME280;59097;46.858;18.632;2023-04-27T12:40:53;100731.09;;;15.31;32.59
71306;BME280;59097;46.858;18.632;2023-04-27T12:43:20;100717.72;;;15.37;32.92
71306;BME280;59097;46.858;18.632;2023-04-27T12:45:47;100731.47;;;15.41;31.90
71306;BME280;59097;46.858;18.632;2023-04-27T12:48:13;100715.84;;;15.44;32.02
71306;BME280;59097;46.858;18.632;2023-04-27T12:50:40;100706.31;;;15.61;32.08
71306;BME280;59097;46.858;18.632;2023-04-27T12:53:07;100712.53;;;15.55;31.94
71306;BME280;59097;46.858;18.632;2023-04-27T12:55:50;100712.38;;;15.31;33.18
71306;BME280;59097;46.858;18.632;2023-04-27T12:58:18;100623.34;;;14.99;32.71
71306;BME280;59097;46.858;18.632;2023-04-27T13:00:45;100701.84;;;15.49;32.35
71306;BME280;59097;46.858;18.632;2023-04-27T13:03:12;100681.00;;;15.64;32.17
71306;BME280;59097;46.858;18.632;2023-04-27T13:05:39;100693.25;;;15.78;32.53
71306;BME280;59097;46.858;18.632;2023-04-27T13:08:11;100722.28;;;16.98;31.73
71306;BME280;59097;46.858;18.632;2023-04-27T13:10:40;100722.28;;;16.98;31.73
71306;BME280;59097;46.858;18.632;2023-04-27T13:13:09;100723.38;;;16.48;32.04
71306;BME280;59097;46.858;18.632;2023-04-27T13:15:37;100726.38;;;16.33;31.67
71306;BME280;59097;46.858;18.632;2023-04-27T13:18:06;100731.63;;;15.97;31.37
71306;BME280;59097;46.858;18.632;2023-04-27T13:20:34;100718.69;;;15.87;31.99
71306;BME280;59097;46.858;18.632;2023-04-27T13:23:03;100681.63;;;15.66;32.94